sensor_id;sensor_type;location;lat;lon;timestamp;pressure;altitude;pressure_sealevel;temperature;humidity
23176;BME280;19910;42.652;23.332;2022-11-03T00:00:22;95145.94;;;15.34;48.81
23176;BME280;19910;42.652;23.332;2022-11-03T00:02:48;95142.88;;;15.36;48.80
23176;BME280;19910;42.652;23.332;2022-11-03T00:05:15;95149.13;;;15.36;48.80
23176;BME280;19910;42.652;23.332;2022-11-03T00:08:00;95143.66;;;15.36;49.31
23176;BME280;19910;42.652;23.332;2022-11-03T00:10:27;95160.03;;;15.36;49.07
23176;BME280;19910;42.652;23.332;2022-11-03T00:12:55;95155.25;;;15.33;49.21
23176;BME280;19910;42.652;23.332;2022-11-03T00:15:23;95152.41;;;15.42;49.47
23176;BME280;19910;42.652;23.332;2022-11-03T00:17:50;95156.16;;;15.49;50.12
23176;BME280;19910;42.652;23.332;2022-11-03T00:20:16;95154.09;;;15.46;50.64
23176;BME280;19910;42.652;23.332;2022-11-03T00:22:43;95152.63;;;15.49;51.07
23176;BME280;19910;42.652;23.332;2022-11-03T00:25:10;95154.34;;;15.41;51.38
23176;BME280;19910;42.652;23.332;2022-11-03T00:27:37;95151.59;;;15.53;51.31
23176;BME280;19910;42.652;23.332;2022-11-03T00:30:04;95155.34;;;15.49;51.54
23176;BME280;19910;42.652;23.332;2022-11-03T00:32:32;95154.56;;;15.48;51.62
23176;BME280;19910;42.652;23.332;2022-11-03T00:34:59;95154.00;;;15.43;51.74
23176;BME280;19910;42.652;23.332;2022-11-03T00:37:26;95153.91;;;15.39;51.94
23176;BME280;19910;42.652;23.332;2022-11-03T00:39:53;95146.84;;;15.38;52.07
23176;BME280;19910;42.652;23.332;2022-11-03T00:42:19;95160.63;;;15.42;52.35
23176;BME280;19910;42.652;23.332;2022-11-03T00:44:46;95156.63;;;15.39;52.41
23176;BME280;19910;42.652;23.332;2022-11-03T00:47:13;95161.19;;;15.35;52.41
23176;BME280;19910;42.652;23.332;2022-11-03T00:49:41;95161.44;;;15.30;52.65
23176;BME280;19910;42.652;23.332;2022-11-03T00:52:08;95159.84;;;15.29;52.79
23176;BME280;19910;42.652;23.332;2022-11-03T00:54:35;95158.91;;;15.37;52.42
23176;BME280;19910;42.652;23.332;2022-11-03T00:57:01;95155.16;;;15.42;52.22
23176;BME280;19910;42.652;23.332;2022-11-03T00:59:28;95163.22;;;15.38;52.63
23176;BME280;19910;42.652;23.332;2022-11-03T01:01:55;95151.16;;;15.39;52.37
23176;BME280;19910;42.652;23.332;2022-11-03T01:04:22;95151.19;;;15.27;52.65
23176;BME280;19910;42.652;23.332;2022-11-03T01:07:07;95158.94;;;15.25;52.94
23176;BME280;19910;42.652;23.332;2022-11-03T01:09:35;95172.00;;;15.19;53.02
23176;BME280;19910;42.652;23.332;2022-11-03T01:12:04;95161.44;;;15.18;53.15
23176;BME280;19910;42.652;23.332;2022-11-03T01:14:33;95156.22;;;15.13;53.32
23176;BME280;19910;42.652;23.332;2022-11-03T01:17:01;95159.78;;;15.01;53.93
23176;BME280;19910;42.652;23.332;2022-11-03T01:19:30;95165.09;;;14.98;54.41
23176;BME280;19910;42.652;23.332;2022-11-03T01:21:57;95165.56;;;14.87;54.62
23176;BME280;19910;42.652;23.332;2022-11-03T01:24:25;95157.59;;;14.82;54.73
23176;BME280;19910;42.652;23.332;2022-11-03T01:26:52;95158.84;;;14.73;55.30
23176;BME280;19910;42.652;23.332;2022-11-03T01:29:18;95164.53;;;14.68;55.80
23176;BME280;19910;42.652;23.332;2022-11-03T01:31:45;95161.69;;;14.64;55.93
23176;BME280;19910;42.652;23.332;2022-11-03T01:34:13;95165.09;;;14.61;55.92
23176;BME280;19910;42.652;23.332;2022-11-03T01:36:40;95161.69;;;14.64;55.94
23176;BME280;19910;42.652;23.332;2022-11-03T01:39:09;95163.97;;;14.62;56.14
23176;BME280;19910;42.652;23.332;2022-11-03T01:41:38;95162.13;;;14.54;56.45
23176;BME280;19910;42.652;23.332;2022-11-03T01:44:31;95169.84;;;14.52;56.80
23176;BME280;19910;42.652;23.332;2022-11-03T01:47:03;95169.84;;;14.52;56.75
23176;BME280;19910;42.652;23.332;2022-11-03T01:49:36;95175.31;;;14.64;56.61
23176;BME280;19910;42.652;23.332;2022-11-03T01:52:07;95174.41;;;14.60;56.78
23176;BME280;19910;42.652;23.332;2022-11-03T01:54:35;95176.44;;;14.63;56.79
23176;BME280;19910;42.652;23.332;2022-11-03T01:57:09;95170.91;;;14.60;57.01
23176;BME280;19910;42.652;23.332;2022-11-03T01:59:37;95178.75;;;14.61;57.45
23176;BME280;19910;42.652;23.332;2022-11-03T02:02:05;95169.44;;;14.62;57.47
23176;BME280;19910;42.652;23.332;2022-11-03T02:04:32;95176.91;;;14.65;57.63
23176;BME280;19910;42.652;23.332;2022-11-03T02:07:08;95172.59;;;14.64;57.98
23176;BME280;19910;42.652;23.332;2022-11-03T02:09:37;95171.44;;;14.53;58.70
23176;BME280;19910;42.652;23.332;2022-11-03T02:12:06;95175.44;;;14.55;58.81
23176;BME280;19910;42.652;23.332;2022-11-03T02:14:37;95166.69;;;14.62;59.11
23176;BME280;19910;42.652;23.332;2022-11-03T02:17:08;95176.22;;;14.56;59.58
23176;BME280;19910;42.652;23.332;2022-11-03T02:19:38;95172.47;;;14.48;59.92
23176;BME280;19910;42.652;23.332;2022-11-03T02:22:21;95175.09;;;14.45;60.06
23176;BME280;19910;42.652;23.332;2022-11-03T02:24:51;95164.59;;;14.35;60.33
23176;BME280;19910;42.652;23.332;2022-11-03T02:27:20;95174.31;;;14.23;60.93
23176;BME280;19910;42.652;23.332;2022-11-03T02:29:47;95177.25;;;14.18;61.11
23176;BME280;19910;42.652;23.332;2022-11-03T02:32:22;95176.00;;;14.16;61.14
23176;BME280;19910;42.652;23.332;2022-11-03T02:34:58;95175.41;;;14.10;61.44
23176;BME280;19910;42.652;23.332;2022-11-03T02:37:28;95175.84;;;14.00;61.94
23176;BME280;19910;42.652;23.332;2022-11-03T02:40:00;95177.84;;;13.91;62.14
23176;BME280;19910;42.652;23.332;2022-11-03T02:42:30;95175.13;;;13.91;62.43
23176;BME280;19910;42.652;23.332;2022-11-03T02:44:59;95178.94;;;13.78;62.86
23176;BME280;19910;42.652;23.332;2022-11-03T02:47:29;95180.31;;;13.84;62.67
23176;BME280;19910;42.652;23.332;2022-11-03T02:49:57;95172.38;;;13.79;62.90
23176;BME280;19910;42.652;23.332;2022-11-03T02:52:37;95172.81;;;13.81;62.97
23176;BME280;19910;42.652;23.332;2022-11-03T02:55:09;95180.41;;;13.75;63.13
23176;BME280;19910;42.652;23.332;2022-11-03T02:57:43;95183.25;;;13.79;63.17
23176;BME280;19910;42.652;23.332;2022-11-03T03:00:12;95177.44;;;13.80;63.05
23176;BME280;19910;42.652;23.332;2022-11-03T03:02:49;95168.94;;;13.82;62.88
23176;BME280;19910;42.652;23.332;2022-11-03T03:05:20;95173.28;;;13.83;62.94
23176;BME280;19910;42.652;23.332;2022-11-03T03:07:52;95163.97;;;13.84;62.50
23176;BME280;19910;42.652;23.332;2022-11-03T03:10:22;95167.72;;;13.79;62.55
23176;BME280;19910;42.652;23.332;2022-11-03T03:12:53;95172.28;;;13.87;61.85
23176;BME280;19910;42.652;23.332;2022-11-03T03:15:26;95175.00;;;13.87;61.75
23176;BME280;19910;42.652;23.332;2022-11-03T03:18:00;95177.84;;;13.91;61.87
23176;BME280;19910;42.652;23.332;2022-11-03T03:20:33;95175.00;;;13.87;62.01
23176;BME280;19910;42.652;23.332;2022-11-03T03:23:14;95171.63;;;13.91;61.84
23176;BME280;19910;42.652;23.332;2022-11-03T03:25:45;95165.38;;;13.90;61.83
23176;BME280;19910;42.652;23.332;2022-11-03T03:28:18;95178.53;;;13.88;62.08
23176;BME280;19910;42.652;23.332;2022-11-03T03:30:47;95171.63;;;13.91;61.92
23176;BME280;19910;42.652;23.332;2022-11-03T03:33:14;95167.63;;;13.88;61.96
23176;BME280;19910;42.652;23.332;2022-11-03T03:35:45;95171.47;;;13.87;62.11
23176;BME280;19910;42.652;23.332;2022-11-03T03:38:17;95168.28;;;13.85;62.15
23176;BME280;19910;42.652;23.332;2022-11-03T03:40:49;95165.78;;;13.80;62.58
23176;BME280;19910;42.652;23.332;2022-11-03T03:43:19;95178.00;;;13.74;62.79
23176;BME280;19910;42.652;23.332;2022-11-03T03:45:51;95167.91;;;13.74;62.90
23176;BME280;19910;42.652;23.332;2022-11-03T03:48:20;95172.56;;;13.74;63.13
23176;BME280;19910;42.652;23.332;2022-11-03T03:50:47;95171.91;;;13.77;63.01
23176;BME280;19910;42.652;23.332;2022-11-03T03:53:17;95175.41;;;13.77;62.89
23176;BME280;19910;42.652;23.332;2022-11-03T03:55:47;95174.81;;;13.72;62.93
23176;BME280;19910;42.652;23.332;2022-11-03T03:58:15;95174.28;;;13.78;63.24
23176;BME280;19910;42.652;23.332;2022-11-03T04:00:44;95170.16;;;13.72;63.27
23176;BME280;19910;42.652;23.332;2022-11-03T04:03:14;95165.94;;;13.63;63.42
23176;BME280;19910;42.652;23.332;2022-11-03T04:05:44;95173.97;;;13.80;63.27
23176;BME280;19910;42.652;23.332;2022-11-03T04:08:11;95180.69;;;13.62;63.88
23176;BME280;19910;42.652;23.332;2022-11-03T04:10:38;95185.84;;;13.55;64.30
23176;BME280;19910;42.652;23.332;2022-11-03T04:13:07;95191.19;;;13.51;64.52
23176;BME280;19910;42.652;23.332;2022-11-03T04:15:52;95192.31;;;13.50;64.57
23176;BME280;19910;42.652;23.332;2022-11-03T04:18:36;95184.66;;;13.43;64.62
23176;BME280;19910;42.652;23.332;2022-11-03T04:21:20;95180.75;;;13.32;64.99
23176;BME280;19910;42.652;23.332;2022-11-03T04:24:04;95185.94;;;13.25;65.34
23176;BME280;19910;42.652;23.332;2022-11-03T04:26:31;95187.13;;;13.07;65.70
23176;BME280;19910;42.652;23.332;2022-11-03T04:28:59;95193.84;;;13.01;66.21
23176;BME280;19910;42.652;23.332;2022-11-03T04:31:31;95185.81;;;12.84;66.77
23176;BME280;19910;42.652;23.332;2022-11-03T04:34:03;95191.94;;;12.72;67.07
23176;BME280;19910;42.652;23.332;2022-11-03T04:36:30;95188.31;;;12.59;67.70
23176;BME280;19910;42.652;23.332;2022-11-03T04:38:57;95187.06;;;12.48;68.19
23176;BME280;19910;42.652;23.332;2022-11-03T04:41:27;95184.56;;;12.43;68.49
23176;BME280;19910;42.652;23.332;2022-11-03T04:43:54;95182.84;;;12.30;69.18
23176;BME280;19910;42.652;23.332;2022-11-03T04:46:24;95182.69;;;12.18;68.97
23176;BME280;19910;42.652;23.332;2022-11-03T04:48:53;95189.13;;;12.04;70.02
23176;BME280;19910;42.652;23.332;2022-11-03T04:51:24;95189.16;;;11.96;70.32
23176;BME280;19910;42.652;23.332;2022-11-03T04:53:54;95184.38;;;11.84;70.70
23176;BME280;19910;42.652;23.332;2022-11-03T04:56:22;95185.97;;;11.85;70.78
23176;BME280;19910;42.652;23.332;2022-11-03T04:58:51;95190.44;;;11.72;71.37
23176;BME280;19910;42.652;23.332;2022-11-03T05:01:19;95191.22;;;11.64;71.29
23176;BME280;19910;42.652;23.332;2022-11-03T05:03:48;95187.56;;;11.78;71.20
23176;BME280;19910;42.652;23.332;2022-11-03T05:06:19;95193.31;;;11.76;71.43
23176;BME280;19910;42.652;23.332;2022-11-03T05:08:49;95196.50;;;11.78;71.94
23176;BME280;19910;42.652;23.332;2022-11-03T05:11:20;95189.94;;;11.70;71.36
23176;BME280;19910;42.652;23.332;2022-11-03T05:13:47;95200.97;;;11.74;71.13
23176;BME280;19910;42.652;23.332;2022-11-03T05:16:15;95204.00;;;11.81;71.40
23176;BME280;19910;42.652;23.332;2022-11-03T05:18:45;95198.75;;;11.85;71.31
23176;BME280;19910;42.652;23.332;2022-11-03T05:21:17;95197.94;;;11.93;70.93
23176;BME280;19910;42.652;23.332;2022-11-03T05:23:47;95203.66;;;12.08;70.33
23176;BME280;19910;42.652;23.332;2022-11-03T05:26:17;95200.25;;;12.29;70.51
23176;BME280;19910;42.652;23.332;2022-11-03T05:28:48;95208.34;;;12.46;69.63
23176;BME280;19910;42.652;23.332;2022-11-03T05:31:23;95204.72;;;12.71;69.38
23176;BME280;19910;42.652;23.332;2022-11-03T05:33:52;95209.44;;;12.92;68.73
23176;BME280;19910;42.652;23.332;2022-11-03T05:36:24;95208.94;;;13.28;67.47
23176;BME280;19910;42.652;23.332;2022-11-03T05:38:54;95211.72;;;14.02;65.11
23176;BME280;19910;42.652;23.332;2022-11-03T05:41:22;95207.03;;;14.69;62.54
23176;BME280;19910;42.652;23.332;2022-11-03T05:43:54;95209.88;;;14.84;61.82
23176;BME280;19910;42.652;23.332;2022-11-03T05:46:23;95216.47;;;14.96;61.65
23176;BME280;19910;42.652;23.332;2022-11-03T05:48:51;95217.16;;;15.41;60.68
23176;BME280;19910;42.652;23.332;2022-11-03T05:51:20;95221.00;;;15.64;59.42
23176;BME280;19910;42.652;23.332;2022-11-03T05:53:52;95210.44;;;16.47;57.71
23176;BME280;19910;42.652;23.332;2022-11-03T05:56:21;95219.03;;;17.24;55.37
23176;BME280;19910;42.652;23.332;2022-11-03T05:58:50;95221.91;;;17.62;54.01
23176;BME280;19910;42.652;23.332;2022-11-03T06:01:22;95221.75;;;18.09;52.61
23176;BME280;19910;42.652;23.332;2022-11-03T06:03:50;95221.94;;;18.20;51.62
23176;BME280;19910;42.652;23.332;2022-11-03T06:06:20;95209.88;;;18.63;50.62
23176;BME280;19910;42.652;23.332;2022-11-03T06:08:52;95218.72;;;18.76;50.26
23176;BME280;19910;42.652;23.332;2022-11-03T06:11:24;95229.66;;;18.95;49.98
23176;BME280;19910;42.652;23.332;2022-11-03T06:13:56;95228.13;;;19.21;49.51
23176;BME280;19910;42.652;23.332;2022-11-03T06:16:36;95225.94;;;19.07;49.38
23176;BME280;19910;42.652;23.332;2022-11-03T06:19:25;95226.50;;;19.42;48.66
23176;BME280;19910;42.652;23.332;2022-11-03T06:22:02;95227.69;;;19.18;48.94
23176;BME280;19910;42.652;23.332;2022-11-03T06:24:36;95231.97;;;19.39;48.84
23176;BME280;19910;42.652;23.332;2022-11-03T06:27:04;95228.69;;;19.56;48.12
23176;BME280;19910;42.652;23.332;2022-11-03T06:29:32;95240.25;;;19.65;47.93
23176;BME280;19910;42.652;23.332;2022-11-03T06:31:59;95236.13;;;19.52;48.45
23176;BME280;19910;42.652;23.332;2022-11-03T06:34:40;95250.16;;;19.01;49.32
23176;BME280;19910;42.652;23.332;2022-11-03T06:37:17;95252.69;;;17.09;54.76
23176;BME280;19910;42.652;23.332;2022-11-03T06:40:06;95260.03;;;17.20;54.89
23176;BME280;19910;42.652;23.332;2022-11-03T06:42:53;95265.16;;;17.22;55.11
23176;BME280;19910;42.652;23.332;2022-11-03T06:45:31;95256.41;;;17.16;54.66
23176;BME280;19910;42.652;23.332;2022-11-03T06:48:02;95260.28;;;16.56;56.36
23176;BME280;19910;42.652;23.332;2022-11-03T06:50:31;95258.69;;;16.98;55.75
23176;BME280;19910;42.652;23.332;2022-11-03T06:53:02;95258.59;;;17.11;55.16
23176;BME280;19910;42.652;23.332;2022-11-03T06:55:32;95250.28;;;17.54;54.42
23176;BME280;19910;42.652;23.332;2022-11-03T06:58:12;95250.56;;;17.33;54.41
23176;BME280;19910;42.652;23.332;2022-11-03T07:00:44;95260.63;;;17.61;53.93
23176;BME280;19910;42.652;23.332;2022-11-03T07:03:17;95257.31;;;17.20;55.55
23176;BME280;19910;42.652;23.332;2022-11-03T07:05:47;95259.25;;;17.04;55.83
23176;BME280;19910;42.652;23.332;2022-11-03T07:08:20;95252.75;;;16.65;56.45
23176;BME280;19910;42.652;23.332;2022-11-03T07:10:50;95253.13;;;16.79;56.66
23176;BME280;19910;42.652;23.332;2022-11-03T07:13:23;95246.38;;;16.61;56.91
23176;BME280;19910;42.652;23.332;2022-11-03T07:15:54;95242.28;;;16.67;56.94
23176;BME280;19910;42.652;23.332;2022-11-03T07:18:26;95245.88;;;16.71;56.73
23176;BME280;19910;42.652;23.332;2022-11-03T07:20:55;95246.78;;;16.75;56.33
23176;BME280;19910;42.652;23.332;2022-11-03T07:23:28;95247.47;;;16.72;56.42
23176;BME280;19910;42.652;23.332;2022-11-03T07:25:59;95249.97;;;16.77;56.11
23176;BME280;19910;42.652;23.332;2022-11-03T07:28:34;95245.22;;;17.05;55.66
23176;BME280;19910;42.652;23.332;2022-11-03T07:31:12;95249.22;;;17.43;54.49
23176;BME280;19910;42.652;23.332;2022-11-03T07:33:44;95247.50;;;17.35;54.46
23176;BME280;19910;42.652;23.332;2022-11-03T07:36:15;95244.53;;;17.59;54.24
23176;BME280;19910;42.652;23.332;2022-11-03T07:38:54;95244.34;;;18.03;52.87
23176;BME280;19910;42.652;23.332;2022-11-03T07:41:31;95234.38;;;18.33;52.16
23176;BME280;19910;42.652;23.332;2022-11-03T07:44:07;95234.88;;;17.65;53.17
23176;BME280;19910;42.652;23.332;2022-11-03T07:46:39;95240.06;;;17.20;54.60
23176;BME280;19910;42.652;23.332;2022-11-03T07:49:09;95249.78;;;17.33;54.96
23176;BME280;19910;42.652;23.332;2022-11-03T07:51:45;95236.41;;;17.47;54.18
23176;BME280;19910;42.652;23.332;2022-11-03T07:54:15;95242.59;;;17.95;52.70
23176;BME280;19910;42.652;23.332;2022-11-03T07:56:49;95241.25;;;17.69;53.15
23176;BME280;19910;42.652;23.332;2022-11-03T07:59:19;95239.09;;;17.79;53.21
23176;BME280;19910;42.652;23.332;2022-11-03T08:01:48;95235.16;;;17.60;54.24
23176;BME280;19910;42.652;23.332;2022-11-03T08:04:18;95230.13;;;17.97;53.36
23176;BME280;19910;42.652;23.332;2022-11-03T08:06:46;95230.19;;;17.66;53.61
23176;BME280;19910;42.652;23.332;2022-11-03T08:09:13;95220.25;;;17.42;54.33
23176;BME280;19910;42.652;23.332;2022-11-03T08:11:40;95221.34;;;17.72;53.60
23176;BME280;19910;42.652;23.332;2022-11-03T08:14:09;95216.75;;;17.77;53.94
23176;BME280;19910;42.652;23.332;2022-11-03T08:16:36;95220.03;;;17.66;54.31
23176;BME280;19910;42.652;23.332;2022-11-03T08:19:03;95202.47;;;17.87;54.12
23176;BME280;19910;42.652;23.332;2022-11-03T08:21:29;95204.78;;;18.23;53.11
23176;BME280;19910;42.652;23.332;2022-11-03T08:23:56;95206.66;;;17.81;53.54
23176;BME280;19910;42.652;23.332;2022-11-03T08:26:23;95206.38;;;17.86;54.16
23176;BME280;19910;42.652;23.332;2022-11-03T08:28:51;95198.41;;;17.81;54.00
23176;BME280;19910;42.652;23.332;2022-11-03T08:31:19;95195.56;;;18.12;53.13
23176;BME280;19910;42.652;23.332;2022-11-03T08:33:46;95197.09;;;18.32;52.07
23176;BME280;19910;42.652;23.332;2022-11-03T08:36:13;95192.88;;;18.16;51.74
23176;BME280;19910;42.652;23.332;2022-11-03T08:38:40;95197.00;;;18.25;51.95
23176;BME280;19910;42.652;23.332;2022-11-03T08:41:07;95189.47;;;18.41;51.84
23176;BME280;19910;42.652;23.332;2022-11-03T08:43:33;95193.22;;;18.33;51.70
23176;BME280;19910;42.652;23.332;2022-11-03T08:46:00;95201.88;;;18.35;51.97
23176;BME280;19910;42.652;23.332;2022-11-03T08:48:28;95199.84;;;18.32;51.12
23176;BME280;19910;42.652;23.332;2022-11-03T08:50:55;95197.06;;;18.29;51.67
23176;BME280;19910;42.652;23.332;2022-11-03T08:53:23;95197.03;;;18.67;51.00
23176;BME280;19910;42.652;23.332;2022-11-03T08:55:51;95195.78;;;18.45;52.19
23176;BME280;19910;42.652;23.332;2022-11-03T08:58:18;95196.00;;;18.56;51.96
23176;BME280;19910;42.652;23.332;2022-11-03T09:00:44;95193.22;;;18.33;52.34
23176;BME280;19910;42.652;23.332;2022-11-03T09:03:11;95199.88;;;18.13;52.84
23176;BME280;19910;42.652;23.332;2022-11-03T09:05:40;95196.00;;;18.14;53.08
23176;BME280;19910;42.652;23.332;2022-11-03T09:08:07;95199.88;;;18.13;52.66
23176;BME280;19910;42.652;23.332;2022-11-03T09:10:34;95198.22;;;18.08;52.27
23176;BME280;19910;42.652;23.332;2022-11-03T09:13:01;95187.91;;;18.02;52.40
23176;BME280;19910;42.652;23.332;2022-11-03T09:15:27;95189.00;;;18.17;52.17
23176;BME280;19910;42.652;23.332;2022-11-03T09:17:55;95180.72;;;18.36;51.47
23176;BME280;19910;42.652;23.332;2022-11-03T09:20:21;95168.78;;;18.47;51.35
23176;BME280;19910;42.652;23.332;2022-11-03T09:22:50;95175.56;;;18.54;51.08
23176;BME280;19910;42.652;23.332;2022-11-03T09:25:17;95167.94;;;18.43;51.44
23176;BME280;19910;42.652;23.332;2022-11-03T09:27:44;95159.25;;;18.61;50.71
23176;BME280;19910;42.652;23.332;2022-11-03T09:30:11;95161.16;;;18.37;51.53
23176;BME280;19910;42.652;23.332;2022-11-03T09:32:39;95162.72;;;18.58;51.42
23176;BME280;19910;42.652;23.332;2022-11-03T09:35:06;95155.31;;;18.81;50.54
23176;BME280;19910;42.652;23.332;2022-11-03T09:37:34;95153.72;;;18.80;50.41
23176;BME280;19910;42.652;23.332;2022-11-03T09:40:03;95151.50;;;18.89;50.01
23176;BME280;19910;42.652;23.332;2022-11-03T09:42:31;95146.78;;;19.12;49.61
23176;BME280;19910;42.652;23.332;2022-11-03T09:45:00;95140.22;;;19.21;49.51
23176;BME280;19910;42.652;23.332;2022-11-03T09:47:30;95138.63;;;18.93;49.50
23176;BME280;19910;42.652;23.332;2022-11-03T09:49:58;95141.97;;;19.06;49.61
23176;BME280;19910;42.652;23.332;2022-11-03T09:52:25;95140.31;;;19.01;49.75
23176;BME280;19910;42.652;23.332;2022-11-03T09:54:53;95139.69;;;19.38;49.59
23176;BME280;19910;42.652;23.332;2022-11-03T09:57:24;95134.84;;;19.54;48.23
23176;BME280;19910;42.652;23.332;2022-11-03T09:59:52;95131.03;;;19.36;48.43
23176;BME280;19910;42.652;23.332;2022-11-03T10:02:21;95118.94;;;19.40;48.50
23176;BME280;19910;42.652;23.332;2022-11-03T10:04:50;95116.00;;;19.52;48.20
23176;BME280;19910;42.652;23.332;2022-11-03T10:07:19;95112.63;;;19.66;47.95
23176;BME280;19910;42.652;23.332;2022-11-03T10:09:48;95111.41;;;19.64;48.24
23176;BME280;19910;42.652;23.332;2022-11-03T10:12:17;95106.66;;;19.61;47.72
23176;BME280;19910;42.652;23.332;2022-11-03T10:14:45;95105.06;;;19.60;47.84
23176;BME280;19910;42.652;23.332;2022-11-03T10:17:16;95099.22;;;19.61;47.61
23176;BME280;19910;42.652;23.332;2022-11-03T10:19:45;95092.47;;;19.88;47.04
23176;BME280;19910;42.652;23.332;2022-11-03T10:22:13;95085.59;;;19.72;47.27
23176;BME280;19910;42.652;23.332;2022-11-03T10:24:40;95078.47;;;19.67;47.37
23176;BME280;19910;42.652;23.332;2022-11-03T10:27:20;95074.91;;;20.00;46.50
23176;BME280;19910;42.652;23.332;2022-11-03T10:32:40;95067.13;;;20.09;44.80
23176;BME280;19910;42.652;23.332;2022-11-03T10:35:33;95066.13;;;20.24;44.55
23176;BME280;19910;42.652;23.332;2022-11-03T10:38:20;95067.94;;;20.10;44.09
23176;BME280;19910;42.652;23.332;2022-11-03T10:40:49;95062.50;;;20.17;43.85
23176;BME280;19910;42.652;23.332;2022-11-03T10:43:16;95053.88;;;20.18;43.92
23176;BME280;19910;42.652;23.332;2022-11-03T10:45:43;95056.47;;;20.41;41.31
23176;BME280;19910;42.652;23.332;2022-11-03T10:48:11;95048.31;;;20.52;41.66
23176;BME280;19910;42.652;23.332;2022-11-03T10:50:39;95046.22;;;20.38;40.31
23176;BME280;19910;42.652;23.332;2022-11-03T10:53:13;95042.78;;;20.48;40.98
23176;BME280;19910;42.652;23.332;2022-11-03T10:55:41;95038.22;;;20.26;40.43
23176;BME280;19910;42.652;23.332;2022-11-03T10:58:08;95040.56;;;20.24;40.23
23176;BME280;19910;42.652;23.332;2022-11-03T11:00:35;95032.66;;;20.60;39.37
23176;BME280;19910;42.652;23.332;2022-11-03T11:03:02;95027.56;;;20.62;39.48
23176;BME280;19910;42.652;23.332;2022-11-03T11:05:32;95021.22;;;20.57;41.63
23176;BME280;19910;42.652;23.332;2022-11-03T11:07:59;95010.34;;;20.79;41.01
23176;BME280;19910;42.652;23.332;2022-11-03T11:10:29;95003.47;;;21.10;40.16
23176;BME280;19910;42.652;23.332;2022-11-03T11:13:05;95010.63;;;21.21;40.55
23176;BME280;19910;42.652;23.332;2022-11-03T11:15:40;95006.75;;;21.30;39.99
23176;BME280;19910;42.652;23.332;2022-11-03T11:18:07;94997.72;;;21.36;39.44
23176;BME280;19910;42.652;23.332;2022-11-03T11:20:39;94998.19;;;21.56;38.80
23176;BME280;19910;42.652;23.332;2022-11-03T11:26:32;94988.63;;;21.28;37.68
23176;BME280;19910;42.652;23.332;2022-11-03T11:29:34;94988.38;;;20.86;39.08
23176;BME280;19910;42.652;23.332;2022-11-03T11:39:01;94974.16;;;20.73;38.43
23176;BME280;19910;42.652;23.332;2022-11-03T11:44:49;94961.88;;;21.33;38.73
23176;BME280;19910;42.652;23.332;2022-11-03T11:47:45;94953.13;;;21.16;37.36
23176;BME280;19910;42.652;23.332;2022-11-03T11:50:29;94973.13;;;21.03;37.28
23176;BME280;19910;42.652;23.332;2022-11-03T11:52:59;94964.81;;;20.96;37.34
23176;BME280;19910;42.652;23.332;2022-11-03T11:55:39;94956.91;;;20.87;37.52
23176;BME280;19910;42.652;23.332;2022-11-03T11:58:14;94954.53;;;20.82;37.52
23176;BME280;19910;42.652;23.332;2022-11-03T12:00:56;94951.81;;;20.89;37.77
23176;BME280;19910;42.652;23.332;2022-11-03T12:03:36;94949.97;;;21.14;38.01
23176;BME280;19910;42.652;23.332;2022-11-03T12:06:04;94947.97;;;21.11;37.93
23176;BME280;19910;42.652;23.332;2022-11-03T12:08:32;94941.59;;;20.93;38.17
23176;BME280;19910;42.652;23.332;2022-11-03T12:11:02;94934.13;;;20.90;38.09
23176;BME280;19910;42.652;23.332;2022-11-03T12:13:44;94938.72;;;20.72;38.17
23176;BME280;19910;42.652;23.332;2022-11-03T12:16:31;94933.25;;;20.79;38.12
23176;BME280;19910;42.652;23.332;2022-11-03T12:19:36;94930.97;;;20.88;38.63
23176;BME280;19910;42.652;23.332;2022-11-03T12:22:06;94915.13;;;20.71;38.32
23176;BME280;19910;42.652;23.332;2022-11-03T12:24:51;94928.06;;;20.63;38.67
23176;BME280;19910;42.652;23.332;2022-11-03T12:27:41;94924.59;;;20.77;39.01
23176;BME280;19910;42.652;23.332;2022-11-03T12:30:14;94919.88;;;20.81;38.90
23176;BME280;19910;42.652;23.332;2022-11-03T12:32:41;94912.81;;;20.83;38.65
23176;BME280;19910;42.652;23.332;2022-11-03T12:35:09;94920.31;;;20.86;38.75
23176;BME280;19910;42.652;23.332;2022-11-03T12:37:38;94903.47;;;20.99;39.19
23176;BME280;19910;42.652;23.332;2022-11-03T12:40:06;94898.75;;;21.06;38.68
23176;BME280;19910;42.652;23.332;2022-11-03T12:42:33;94909.75;;;20.99;38.71
23176;BME280;19910;42.652;23.332;2022-11-03T12:45:01;94901.13;;;21.04;38.11
23176;BME280;19910;42.652;23.332;2022-11-03T12:47:29;94888.50;;;20.96;38.90
23176;BME280;19910;42.652;23.332;2022-11-03T12:49:56;94898.69;;;20.92;38.49
23176;BME280;19910;42.652;23.332;2022-11-03T12:52:22;94890.88;;;21.01;38.66
23176;BME280;19910;42.652;23.332;2022-11-03T12:54:49;94894.75;;;20.86;38.88
23176;BME280;19910;42.652;23.332;2022-11-03T12:57:16;94897.13;;;20.91;39.22
23176;BME280;19910;42.652;23.332;2022-11-03T12:59:43;94882.16;;;20.92;39.06
23176;BME280;19910;42.652;23.332;2022-11-03T13:02:11;94890.69;;;20.66;39.44
23176;BME280;19910;42.652;23.332;2022-11-03T13:04:37;94894.19;;;20.55;39.47
23176;BME280;19910;42.652;23.332;2022-11-03T13:07:04;94896.53;;;20.50;39.49
23176;BME280;19910;42.652;23.332;2022-11-03T13:09:31;94894.53;;;20.50;39.44
23176;BME280;19910;42.652;23.332;2022-11-03T13:12:00;94885.16;;;20.58;39.31
23176;BME280;19910;42.652;23.332;2022-11-03T13:14:44;94889.84;;;20.54;39.37
23176;BME280;19910;42.652;23.332;2022-11-03T13:17:12;94882.41;;;20.58;39.74
23176;BME280;19910;42.652;23.332;2022-11-03T13:19:39;94873.06;;;20.74;39.63
23176;BME280;19910;42.652;23.332;2022-11-03T13:22:06;94875.81;;;20.74;40.49
23176;BME280;19910;42.652;23.332;2022-11-03T13:24:32;94877.41;;;20.82;39.32